Time;durP1;ratioP1;P1;durP2;ratioP2;P2;SDS_P1;SDS_P2;PMS_P1;PMS_P2;Temp;Humidity;BMP_temperature;BMP_pressure;BME280_temperature;BME280_humidity;BME280_pressure;Samples;Min_cycle;Max_cycle;Signal;HPM_P1;HPM_P2
2022/05/22 00:02:24;;;;;;;1.17;0.80;;;;;;;;;;10423292;28;20268;-74
2022/05/22 00:07:26;;;;;;;4.70;0.90;;;;;;;;;;10414629;28;20913;-74
2022/05/22 00:12:28;;;;;;;3.08;1.13;;;;;;;;;;10392114;28;20203;-75
2022/05/22 00:17:29;;;;;;;1.60;0.98;;;;;;;;;;10394622;28;20199;-75
2022/05/22 00:22:30;;;;;;;2.35;1.20;;;;;;;;;;10410911;28;20516;-74
2022/05/22 00:27:31;;;;;;;2.20;0.73;;;;;;;;;;10387073;28;20218;-75
2022/05/22 00:32:32;;;;;;;3.50;0.70;;;;;;;;;;10378961;28;20241;-74
2022/05/22 00:37:33;;;;;;;3.28;0.80;;;;;;;;;;10398071;28;20227;-75
2022/05/22 00:42:35;;;;;;;3.30;0.70;;;;;;;;;;10394047;28;20306;-75
2022/05/22 00:47:38;;;;;;;4.78;1.27;;;;;;;;;;10397997;28;20207;-75
2022/05/22 00:52:46;;;;;;;2.42;0.75;;;;;;;;;;10405466;28;20195;-75
2022/05/22 00:57:56;;;;;;;3.67;0.70;;;;;;;;;;10398767;28;20280;-75
2022/05/22 01:08:19;;;;;;;4.78;0.90;;;;;;;;;;10384646;28;20285;-74
2022/05/22 01:13:26;;;;;;;4.57;1.33;;;;;;;;;;10379919;28;20238;-74
2022/05/22 01:18:28;;;;;;;2.40;1.10;;;;;;;;;;10360465;28;20855;-75
2022/05/22 01:23:29;;;;;;;3.83;1.40;;;;;;;;;;10386918;28;20211;-74
2022/05/22 01:28:32;;;;;;;2.90;1.17;;;;;;;;;;10370263;28;20804;-74
2022/05/22 01:33:35;;;;;;;4.25;1.10;;;;;;;;;;10367905;28;20222;-74
2022/05/22 01:38:38;;;;;;;2.45;1.10;;;;;;;;;;10366945;28;20314;-75
2022/05/22 01:43:40;;;;;;;2.72;1.00;;;;;;;;;;10384129;28;20595;-74
2022/05/22 01:48:50;;;;;;;2.08;0.98;;;;;;;;;;10349521;28;20929;-75
2022/05/22 01:53:58;;;;;;;2.33;0.77;;;;;;;;;;10369594;28;20204;-74
2022/05/22 01:59:00;;;;;;;0.80;0.73;;;;;;;;;;10369229;28;20196;-74
2022/05/22 02:04:08;;;;;;;3.17;0.88;;;;;;;;;;10398941;28;20226;-74
2022/05/22 02:09:10;;;;;;;1.52;1.13;;;;;;;;;;10423542;28;20255;-74
2022/05/22 02:14:17;;;;;;;2.20;1.13;;;;;;;;;;10437967;28;20810;-74
2022/05/22 02:19:22;;;;;;;1.98;0.80;;;;;;;;;;10437438;28;20280;-74
2022/05/22 02:24:24;;;;;;;6.13;1.08;;;;;;;;;;10442717;28;20205;-74
2022/05/22 02:29:37;;;;;;;1.63;1.25;;;;;;;;;;10419537;28;20751;-75
2022/05/22 02:34:38;;;;;;;1.58;1.00;;;;;;;;;;10405850;28;20210;-75
2022/05/22 02:39:40;;;;;;;3.55;1.02;;;;;;;;;;10432257;28;20229;-74
2022/05/22 02:45:01;;;;;;;2.47;1.13;;;;;;;;;;10423597;28;20225;-74
2022/05/22 02:50:02;;;;;;;4.43;1.67;;;;;;;;;;10395814;28;20197;-74
2022/05/22 02:55:05;;;;;;;2.55;1.38;;;;;;;;;;10443879;28;20198;-75
2022/05/22 03:00:17;;;;;;;4.05;1.58;;;;;;;;;;10443638;28;20282;-74
2022/05/22 03:05:26;;;;;;;3.90;1.60;;;;;;;;;;10409063;28;20338;-75
2022/05/22 03:10:27;;;;;;;3.13;1.83;;;;;;;;;;10425072;28;20345;-74
2022/05/22 03:15:28;;;;;;;4.13;1.55;;;;;;;;;;10413331;28;21045;-75
2022/05/22 03:20:30;;;;;;;4.10;1.40;;;;;;;;;;10425911;28;20289;-74
2022/05/22 03:25:35;;;;;;;3.05;1.30;;;;;;;;;;10400040;28;20218;-74
2022/05/22 03:30:36;;;;;;;2.22;1.48;;;;;;;;;;10423984;28;20789;-75
2022/05/22 03:35:46;;;;;;;3.80;1.60;;;;;;;;;;10394580;28;20285;-75
2022/05/22 03:40:48;;;;;;;2.95;1.13;;;;;;;;;;10427684;28;20202;-75
2022/05/22 03:45:50;;;;;;;3.53;1.38;;;;;;;;;;10378460;28;20264;-74
2022/05/22 03:50:52;;;;;;;1.92;1.40;;;;;;;;;;10427453;28;20607;-75
2022/05/22 03:55:58;;;;;;;1.23;1.00;;;;;;;;;;10429534;28;20194;-75
2022/05/22 04:01:03;;;;;;;3.97;1.45;;;;;;;;;;10423956;28;20207;-74
2022/05/22 04:06:10;;;;;;;3.42;1.40;;;;;;;;;;10387693;28;20589;-74
2022/05/22 04:11:14;;;;;;;4.03;1.30;;;;;;;;;;10415597;28;20733;-74
2022/05/22 04:16:16;;;;;;;2.92;1.40;;;;;;;;;;10413782;28;20210;-76
2022/05/22 04:21:17;;;;;;;2.92;1.45;;;;;;;;;;10437796;28;20198;-76
2022/05/22 04:26:32;;;;;;;4.03;1.70;;;;;;;;;;10445307;28;20209;-76
2022/05/22 04:31:35;;;;;;;2.40;1.58;;;;;;;;;;10420783;28;20217;-76
2022/05/22 04:36:46;;;;;;;2.80;1.35;;;;;;;;;;10434793;28;20224;-76
2022/05/22 04:42:05;;;;;;;2.05;1.58;;;;;;;;;;10423122;28;20229;-76
2022/05/22 04:47:06;;;;;;;6.07;1.40;;;;;;;;;;10400408;28;20210;-76
2022/05/22 04:52:07;;;;;;;3.00;1.55;;;;;;;;;;10448427;28;20432;-77
2022/05/22 04:57:09;;;;;;;3.08;1.33;;;;;;;;;;10445496;28;20321;-77
2022/05/22 05:02:10;;;;;;;4.55;1.55;;;;;;;;;;10419226;28;20238;-77
2022/05/22 05:07:28;;;;;;;3.92;1.23;;;;;;;;;;10446746;28;20303;-77
2022/05/22 05:12:39;;;;;;;5.03;1.67;;;;;;;;;;10452968;28;20206;-77
2022/05/22 05:17:42;;;;;;;4.40;1.67;;;;;;;;;;10447535;28;20210;-77
2022/05/22 05:22:44;;;;;;;6.22;1.45;;;;;;;;;;10423350;28;20202;-79
2022/05/22 05:27:53;;;;;;;5.15;1.33;;;;;;;;;;10408528;28;20252;-79
2022/05/22 05:32:56;;;;;;;1.65;1.10;;;;;;;;;;10438736;28;20230;-78
2022/05/22 05:38:16;;;;;;;6.35;1.50;;;;;;;;;;10461834;28;20206;-76
2022/05/22 05:43:21;;;;;;;2.88;1.13;;;;;;;;;;10439006;28;20205;-78
2022/05/22 05:48:22;;;;;;;3.63;1.23;;;;;;;;;;10425564;28;20625;-78
2022/05/22 05:53:28;;;;;;;7.22;1.40;;;;;;;;;;10453543;28;20647;-78
2022/05/22 05:58:48;;;;;;;3.17;1.23;;;;;;;;;;10459104;28;20218;-78
2022/05/22 06:04:06;;;;;;;5.22;1.55;;;;;;;;;;10421282;28;20681;-77
2022/05/22 06:09:07;;;;;;;2.63;0.82;;;;;;;;;;10422041;28;20228;-78
2022/05/22 06:14:29;;;;;;;6.78;1.05;;;;;;;;;;10425834;28;20214;-78
2022/05/22 06:24:52;;;;;;;9.10;0.90;;;;;;;;;;10424706;28;20214;-77
2022/05/22 06:30:13;;;;;;;2.13;1.00;;;;;;;;;;10447062;28;20201;-78
2022/05/22 06:35:46;;;;;;;3.63;0.70;;;;;;;;;;10413801;28;20217;-77
2022/05/22 06:41:11;;;;;;;4.03;0.75;;;;;;;;;;10419948;28;20228;-78
2022/05/22 06:46:26;;;;;;;6.10;1.20;;;;;;;;;;10401852;28;20223;-78
2022/05/22 06:51:46;;;;;;;3.03;0.60;;;;;;;;;;10413826;28;20206;-78
2022/05/22 06:57:23;;;;;;;5.03;0.90;;;;;;;;;;10430363;28;20207;-78
2022/05/22 07:02:36;;;;;;;3.70;0.60;;;;;;;;;;10372909;28;20222;-77
2022/05/22 07:08:00;;;;;;;2.45;1.00;;;;;;;;;;10420470;28;20388;-78
2022/05/22 07:13:26;;;;;;;4.47;1.10;;;;;;;;;;10429039;28;20221;-78
2022/05/22 07:18:36;;;;;;;3.65;1.00;;;;;;;;;;10428164;28;20975;-78
2022/05/22 07:24:06;;;;;;;4.90;1.02;;;;;;;;;;10419860;28;20210;-78
2022/05/22 07:29:22;;;;;;;2.67;1.33;;;;;;;;;;10426558;28;20198;-78
2022/05/22 07:34:29;;;;;;;6.00;1.13;;;;;;;;;;10461618;28;20227;-78
2022/05/22 07:39:49;;;;;;;3.65;0.98;;;;;;;;;;10462036;28;20213;-78
2022/05/22 07:45:12;;;;;;;3.20;0.85;;;;;;;;;;10470031;28;20214;-78
2022/05/22 07:50:32;;;;;;;2.50;0.80;;;;;;;;;;10451861;28;20213;-79
2022/05/22 07:55:35;;;;;;;2.00;0.75;;;;;;;;;;10472558;28;20202;-78
2022/05/22 08:00:46;;;;;;;3.50;0.90;;;;;;;;;;10472804;28;20318;-78
2022/05/22 08:05:55;;;;;;;2.30;0.80;;;;;;;;;;10407340;28;20256;-78
2022/05/22 08:10:58;;;;;;;1.83;0.80;;;;;;;;;;10430193;28;20218;-78
2022/05/22 08:16:05;;;;;;;2.50;0.90;;;;;;;;;;10453571;28;20218;-79
2022/05/22 08:21:10;;;;;;;2.42;0.90;;;;;;;;;;10436593;28;20929;-77
2022/05/22 08:26:21;;;;;;;2.95;0.80;;;;;;;;;;10437845;28;20781;-78
2022/05/22 08:31:22;;;;;;;1.13;0.73;;;;;;;;;;10453608;28;20237;-78
2022/05/22 08:36:27;;;;;;;4.88;0.70;;;;;;;;;;10455674;28;20267;-78
2022/05/22 08:41:31;;;;;;;0.47;0.30;;;;;;;;;;10474100;28;20233;-78
2022/05/22 08:46:37;;;;;;;2.78;1.17;;;;;;;;;;10459448;28;20206;-78
2022/05/22 08:51:43;;;;;;;5.75;0.80;;;;;;;;;;10460840;28;20206;-79
2022/05/22 09:02:24;;;;;;;4.20;0.70;;;;;;;;;;10451647;28;20262;-78
2022/05/22 09:07:30;;;;;;;3.33;1.00;;;;;;;;;;10466234;28;20222;-78
2022/05/22 09:12:50;;;;;;;1.40;0.73;;;;;;;;;;10468126;28;20257;-78
2022/05/22 09:18:07;;;;;;;1.70;0.95;;;;;;;;;;10441214;28;20211;-76
2022/05/22 09:23:16;;;;;;;1.42;0.70;;;;;;;;;;10439891;28;20189;-77
2022/05/22 09:28:26;;;;;;;3.90;0.93;;;;;;;;;;10443796;28;20217;-77
2022/05/22 09:33:27;;;;;;;2.15;0.90;;;;;;;;;;10435922;28;20218;-77
2022/05/22 09:38:28;;;;;;;1.10;0.50;;;;;;;;;;10427408;28;20206;-76
2022/05/22 09:43:29;;;;;;;1.23;0.60;;;;;;;;;;10432694;28;20203;-76
2022/05/22 09:48:30;;;;;;;4.40;0.93;;;;;;;;;;10431488;28;20199;-76
2022/05/22 09:53:45;;;;;;;4.43;0.90;;;;;;;;;;10452563;28;20206;-77
2022/05/22 09:58:56;;;;;;;3.55;0.50;;;;;;;;;;10418111;28;20293;-77
2022/05/22 10:04:03;;;;;;;4.00;0.55;;;;;;;;;;10397765;28;1367639;-77
2022/05/22 10:09:23;;;;;;;1.20;0.60;;;;;;;;;;10436934;28;20489;-78
2022/05/22 10:14:46;;;;;;;1.70;0.60;;;;;;;;;;10430067;28;20888;-79
2022/05/22 10:19:56;;;;;;;2.22;0.47;;;;;;;;;;10456765;28;20199;-77
2022/05/22 10:25:03;;;;;;;2.95;0.80;;;;;;;;;;10417344;28;20206;-78
2022/05/22 10:30:07;;;;;;;1.98;0.50;;;;;;;;;;10416005;28;20206;-77
2022/05/22 10:35:11;;;;;;;1.83;0.70;;;;;;;;;;10438699;28;20214;-77
2022/05/22 10:40:14;;;;;;;1.00;0.55;;;;;;;;;;10449215;28;21022;-78
2022/05/22 10:45:34;;;;;;;2.00;0.40;;;;;;;;;;10468085;28;20784;-76
2022/05/22 10:50:35;;;;;;;1.58;0.30;;;;;;;;;;10466528;28;20265;-77
2022/05/22 10:55:46;;;;;;;1.98;0.50;;;;;;;;;;10444565;28;20608;-78
2022/05/22 11:00:57;;;;;;;2.38;0.60;;;;;;;;;;10413191;28;20644;-77
2022/05/22 11:05:59;;;;;;;2.33;0.40;;;;;;;;;;10436889;28;20226;-78
2022/05/22 11:11:18;;;;;;;2.42;0.40;;;;;;;;;;10462086;28;20201;-78
2022/05/22 11:16:20;;;;;;;0.95;0.50;;;;;;;;;;10466874;28;20245;-78
2022/05/22 11:21:29;;;;;;;1.83;0.45;;;;;;;;;;10448926;28;20194;-78
2022/05/22 11:26:42;;;;;;;1.13;0.30;;;;;;;;;;10468447;28;20198;-78
2022/05/22 11:31:49;;;;;;;0.90;0.30;;;;;;;;;;10468569;28;20214;-78
2022/05/22 11:36:56;;;;;;;1.80;0.40;;;;;;;;;;10421777;28;20198;-79
2022/05/22 11:42:03;;;;;;;0.30;0.30;;;;;;;;;;10434099;28;20786;-78
2022/05/22 11:47:05;;;;;;;2.92;0.47;;;;;;;;;;10424337;28;20209;-79
2022/05/22 11:52:53;;;;;;;0.98;0.40;;;;;;;;;;10447966;28;20194;-78
2022/05/22 11:57:40;;;;;;;4.40;0.60;;;;;;;;;;10461568;28;20206;-79
2022/05/22 12:02:59;;;;;;;1.20;0.40;;;;;;;;;;10470325;28;20210;-79
2022/05/22 12:08:21;;;;;;;0.95;0.40;;;;;;;;;;10435722;28;20791;-79
2022/05/22 12:13:27;;;;;;;1.75;0.50;;;;;;;;;;10463015;28;20197;-79
2022/05/22 12:18:47;;;;;;;1.52;0.32;;;;;;;;;;10451811;28;20207;-79
2022/05/22 12:23:57;;;;;;;0.55;0.40;;;;;;;;;;10426532;28;20355;-79
2022/05/22 12:29:00;;;;;;;0.90;0.40;;;;;;;;;;10452386;28;20238;-78
2022/05/22 12:34:03;;;;;;;2.53;0.60;;;;;;;;;;10457832;28;20282;-80
2022/05/22 12:39:13;;;;;;;1.75;0.40;;;;;;;;;;10448827;28;20221;-78
2022/05/22 12:44:14;;;;;;;2.58;0.50;;;;;;;;;;10458461;28;20213;-79
2022/05/22 12:49:23;;;;;;;1.73;0.40;;;;;;;;;;10454961;28;20202;-79
2022/05/22 12:54:25;;;;;;;0.47;0.30;;;;;;;;;;10468569;28;20210;-78
2022/05/22 12:59:28;;;;;;;1.45;0.30;;;;;;;;;;10447399;28;20205;-78
2022/05/22 13:04:34;;;;;;;0.20;0.20;;;;;;;;;;10469465;28;20687;-79
2022/05/22 13:09:38;;;;;;;0.60;0.30;;;;;;;;;;10453814;28;20789;-79
2022/05/22 13:14:47;;;;;;;1.10;0.40;;;;;;;;;;10467384;28;20298;-79
2022/05/22 13:19:49;;;;;;;0.50;0.43;;;;;;;;;;10429723;28;20194;-77
2022/05/22 13:24:50;;;;;;;1.23;0.40;;;;;;;;;;10462389;28;20694;-79
2022/05/22 13:29:59;;;;;;;0.30;0.30;;;;;;;;;;10456757;28;20236;-80
2022/05/22 13:35:01;;;;;;;3.08;0.40;;;;;;;;;;10455761;28;20681;-78
2022/05/22 13:40:08;;;;;;;0.40;0.30;;;;;;;;;;10473508;28;20202;-79
2022/05/22 13:45:21;;;;;;;0.30;0.30;;;;;;;;;;10470028;28;20213;-78
2022/05/22 13:55:48;;;;;;;0.57;0.40;;;;;;;;;;10471607;28;20210;-78
2022/05/22 14:00:51;;;;;;;1.92;0.30;;;;;;;;;;10470170;28;20305;-79
2022/05/22 14:06:00;;;;;;;2.75;0.30;;;;;;;;;;10473544;28;20902;-79
2022/05/22 14:11:09;;;;;;;1.23;0.57;;;;;;;;;;10478313;28;20198;-79
2022/05/22 14:16:10;;;;;;;0.63;0.43;;;;;;;;;;10433762;28;20807;-79
2022/05/22 14:21:11;;;;;;;0.75;0.30;;;;;;;;;;10454026;28;20202;-78
2022/05/22 14:26:14;;;;;;;3.22;0.40;;;;;;;;;;10449185;28;20206;-78
2022/05/22 14:31:16;;;;;;;1.90;0.50;;;;;;;;;;10426969;28;20355;-79
2022/05/22 14:36:21;;;;;;;2.25;0.50;;;;;;;;;;10425839;28;20218;-78
2022/05/22 14:41:23;;;;;;;0.60;0.40;;;;;;;;;;10423524;28;20737;-79
2022/05/22 14:46:27;;;;;;;2.05;0.50;;;;;;;;;;10439632;28;20387;-79
2022/05/22 14:51:31;;;;;;;0.77;0.40;;;;;;;;;;10440369;28;20220;-78
2022/05/22 14:56:34;;;;;;;0.40;0.40;;;;;;;;;;10453147;28;20207;-78
2022/05/22 15:01:38;;;;;;;1.95;0.40;;;;;;;;;;10466159;28;20225;-79
2022/05/22 15:06:45;;;;;;;0.93;0.50;;;;;;;;;;10443795;28;20309;-79
2022/05/22 15:11:46;;;;;;;1.75;0.40;;;;;;;;;;10440485;28;20379;-78
2022/05/22 15:16:48;;;;;;;0.80;0.40;;;;;;;;;;10433765;28;20634;-78
2022/05/22 15:22:01;;;;;;;0.50;0.30;;;;;;;;;;10460714;28;20210;-78
2022/05/22 15:27:03;;;;;;;0.30;0.30;;;;;;;;;;10456812;28;20206;-79
2022/05/22 15:32:10;;;;;;;1.08;0.38;;;;;;;;;;10436263;28;20710;-79
2022/05/22 15:37:19;;;;;;;1.70;0.30;;;;;;;;;;10473250;28;20225;-78
2022/05/22 15:42:21;;;;;;;1.40;0.40;;;;;;;;;;10470660;28;20213;-78
2022/05/22 15:47:27;;;;;;;0.50;0.50;;;;;;;;;;10449552;28;20277;-79
2022/05/22 15:52:30;;;;;;;1.10;0.47;;;;;;;;;;10453681;28;20256;-79
2022/05/22 15:57:31;;;;;;;0.30;0.30;;;;;;;;;;10446908;28;20404;-78
2022/05/22 16:02:35;;;;;;;1.40;0.43;;;;;;;;;;10441105;28;20293;-79
2022/05/22 16:07:37;;;;;;;0.90;0.60;;;;;;;;;;10428325;28;20899;-78
2022/05/22 16:12:38;;;;;;;1.40;0.50;;;;;;;;;;10451782;28;20210;-78
2022/05/22 16:17:42;;;;;;;0.57;0.40;;;;;;;;;;10460338;28;20205;-78
2022/05/22 16:22:43;;;;;;;1.58;0.52;;;;;;;;;;10474939;28;20799;-79
2022/05/22 16:27:44;;;;;;;0.77;0.40;;;;;;;;;;10474267;28;20712;-78
2022/05/22 16:32:45;;;;;;;2.72;0.35;;;;;;;;;;10474936;28;20221;-78
2022/05/22 16:37:46;;;;;;;0.52;0.30;;;;;;;;;;10469256;28;20634;-79
2022/05/22 16:42:49;;;;;;;0.98;0.20;;;;;;;;;;10430557;28;20191;-79
2022/05/22 16:53:11;;;;;;;0.38;0.30;;;;;;;;;;10474529;28;20966;-78
2022/05/22 16:58:13;;;;;;;0.50;0.40;;;;;;;;;;10469723;28;20206;-78
2022/05/22 17:03:38;;;;;;;1.05;0.43;;;;;;;;;;10451812;28;20210;-78
2022/05/22 17:08:40;;;;;;;1.20;0.35;;;;;;;;;;10455260;28;20230;-78
2022/05/22 17:13:41;;;;;;;1.75;0.45;;;;;;;;;;10431704;28;20252;-78
2022/05/22 17:18:42;;;;;;;0.65;0.30;;;;;;;;;;10442234;28;20279;-78
2022/05/22 17:23:43;;;;;;;1.38;0.30;;;;;;;;;;10455702;28;20893;-78
2022/05/22 17:28:45;;;;;;;1.92;0.40;;;;;;;;;;10454359;28;20214;-78
2022/05/22 17:33:46;;;;;;;0.60;0.40;;;;;;;;;;10471382;28;20232;-78
2022/05/22 17:38:47;;;;;;;0.85;0.30;;;;;;;;;;10451668;28;20209;-78
2022/05/22 17:43:48;;;;;;;0.47;0.30;;;;;;;;;;10453333;28;20191;-78
2022/05/22 17:48:49;;;;;;;0.98;0.40;;;;;;;;;;10450579;28;20218;-78
2022/05/22 17:53:51;;;;;;;0.30;0.30;;;;;;;;;;10453024;28;20213;-78
2022/05/22 17:58:52;;;;;;;0.38;0.30;;;;;;;;;;10446023;28;20305;-78
2022/05/22 18:03:55;;;;;;;0.80;0.30;;;;;;;;;;10448516;28;20704;-77
2022/05/22 18:08:58;;;;;;;0.85;0.30;;;;;;;;;;10467842;28;20232;-77
2022/05/22 18:19:19;;;;;;;1.70;0.40;;;;;;;;;;10467068;28;20210;-77
2022/05/22 18:29:43;;;;;;;0.68;0.40;;;;;;;;;;10465858;28;20201;-77
2022/05/22 18:34:44;;;;;;;1.08;0.80;;;;;;;;;;10446446;28;20218;-77
2022/05/22 18:39:46;;;;;;;2.03;0.43;;;;;;;;;;10447088;28;20761;-76
2022/05/22 18:44:48;;;;;;;0.30;0.30;;;;;;;;;;10468197;28;20803;-77
2022/05/22 18:49:49;;;;;;;1.20;0.40;;;;;;;;;;10420511;28;20213;-77
2022/05/22 18:54:50;;;;;;;0.77;0.32;;;;;;;;;;10464954;28;20732;-76
2022/05/22 18:59:51;;;;;;;1.73;0.40;;;;;;;;;;10453887;28;20740;-77
2022/05/22 19:04:52;;;;;;;0.63;0.57;;;;;;;;;;10466124;28;20228;-75
2022/05/22 19:09:53;;;;;;;0.63;0.63;;;;;;;;;;10429351;28;20738;-75
2022/05/22 19:14:54;;;;;;;1.83;0.80;;;;;;;;;;10414399;28;20307;-74
2022/05/22 19:19:56;;;;;;;0.88;0.60;;;;;;;;;;10449825;28;20212;-75
2022/05/22 19:24:59;;;;;;;0.60;0.60;;;;;;;;;;10457900;28;20229;-74
2022/05/22 19:30:04;;;;;;;1.35;0.50;;;;;;;;;;10456689;28;20259;-74
2022/05/22 19:35:09;;;;;;;1.98;0.50;;;;;;;;;;10466976;28;20209;-75
2022/05/22 19:40:10;;;;;;;1.13;0.45;;;;;;;;;;10435692;28;20860;-74
2022/05/22 19:45:13;;;;;;;0.70;0.40;;;;;;;;;;10465925;28;20206;-74
2022/05/22 19:50:14;;;;;;;1.83;0.50;;;;;;;;;;10470255;28;20244;-74
2022/05/22 20:00:37;;;;;;;0.65;0.57;;;;;;;;;;10440846;28;20217;-75
2022/05/22 20:05:39;;;;;;;2.25;0.73;;;;;;;;;;10430568;28;20222;-74
2022/05/22 20:10:40;;;;;;;1.85;0.60;;;;;;;;;;10411524;28;21272;-74
2022/05/22 20:15:42;;;;;;;1.33;0.93;;;;;;;;;;10422116;28;20209;-74
2022/05/22 20:20:43;;;;;;;1.30;0.90;;;;;;;;;;10449703;28;20220;-74
2022/05/22 20:25:47;;;;;;;0.82;0.70;;;;;;;;;;10424760;28;20210;-75
2022/05/22 20:30:51;;;;;;;1.48;0.70;;;;;;;;;;10439863;28;20222;-75
2022/05/22 20:35:55;;;;;;;0.55;0.55;;;;;;;;;;10473698;28;20213;-75
2022/05/22 20:40:58;;;;;;;1.35;0.85;;;;;;;;;;10473607;28;20585;-75
2022/05/22 20:45:59;;;;;;;0.50;0.50;;;;;;;;;;10465266;28;20852;-75
2022/05/22 20:51:00;;;;;;;0.85;0.70;;;;;;;;;;10461059;28;20673;-75
2022/05/22 21:01:21;;;;;;;0.63;0.63;;;;;;;;;;10465746;28;20264;-75
2022/05/22 21:06:22;;;;;;;1.27;0.80;;;;;;;;;;10449574;28;20218;-75
2022/05/22 21:11:25;;;;;;;1.58;0.75;;;;;;;;;;10445683;28;20199;-74
2022/05/22 21:16:27;;;;;;;1.65;0.65;;;;;;;;;;10458232;28;20197;-74
2022/05/22 21:21:28;;;;;;;2.72;0.75;;;;;;;;;;10453285;28;20260;-74
2022/05/22 21:31:49;;;;;;;1.60;0.60;;;;;;;;;;10471420;28;20855;-74
2022/05/22 21:36:51;;;;;;;1.17;0.65;;;;;;;;;;10450666;28;20206;-74
2022/05/22 21:41:52;;;;;;;2.70;0.68;;;;;;;;;;10447352;28;20206;-74
2022/05/22 21:46:54;;;;;;;1.13;0.60;;;;;;;;;;10440253;28;20207;-74
2022/05/22 21:51:55;;;;;;;0.77;0.77;;;;;;;;;;10459450;28;20210;-74
2022/05/22 21:56:56;;;;;;;0.93;0.88;;;;;;;;;;10465568;28;20194;-74
2022/05/22 22:01:58;;;;;;;0.68;0.68;;;;;;;;;;10446259;28;20435;-74
2022/05/22 22:07:00;;;;;;;1.98;0.88;;;;;;;;;;10465919;28;20222;-74
2022/05/22 22:12:02;;;;;;;0.90;0.85;;;;;;;;;;10433826;28;20202;-74
2022/05/22 22:17:03;;;;;;;1.27;0.98;;;;;;;;;;10441370;28;20221;-74
2022/05/22 22:22:04;;;;;;;0.80;0.65;;;;;;;;;;10435930;28;20298;-74
2022/05/22 22:27:06;;;;;;;1.73;0.93;;;;;;;;;;10419822;28;21002;-74
2022/05/22 22:32:08;;;;;;;1.58;1.10;;;;;;;;;;10449028;28;20288;-74
2022/05/22 22:37:09;;;;;;;2.47;0.98;;;;;;;;;;10467107;28;20218;-74
2022/05/22 22:42:12;;;;;;;2.42;1.00;;;;;;;;;;10464300;28;20206;-74
2022/05/22 22:47:13;;;;;;;0.98;0.98;;;;;;;;;;10466004;28;20309;-73
2022/05/22 22:52:14;;;;;;;1.20;1.10;;;;;;;;;;10445138;28;20283;-74
2022/05/22 23:02:39;;;;;;;1.25;1.15;;;;;;;;;;10439813;28;20709;-73
2022/05/22 23:07:40;;;;;;;4.00;1.48;;;;;;;;;;10458434;28;20864;-74
2022/05/22 23:12:42;;;;;;;3.20;1.50;;;;;;;;;;10465417;28;20202;-74
2022/05/22 23:17:44;;;;;;;1.58;1.48;;;;;;;;;;10464787;28;20205;-74
2022/05/22 23:22:45;;;;;;;1.77;1.67;;;;;;;;;;10463069;28;20207;-73
2022/05/22 23:27:50;;;;;;;2.38;1.88;;;;;;;;;;10447221;28;20733;-74
2022/05/22 23:32:51;;;;;;;2.03;1.92;;;;;;;;;;10462307;28;20205;-73
2022/05/22 23:37:54;;;;;;;1.77;1.67;;;;;;;;;;10459338;28;20294;-74
2022/05/22 23:42:55;;;;;;;2.78;1.73;;;;;;;;;;10439438;28;20210;-74
2022/05/22 23:47:56;;;;;;;2.30;2.10;;;;;;;;;;10463149;28;20728;-74
2022/05/22 23:52:58;;;;;;;2.92;2.17;;;;;;;;;;10465642;28;20214;-74
2022/05/22 23:57:59;;;;;;;1.63;1.48;;;;;;;;;;10465469;28;20325;-75
